Time;durP1;ratioP1;P1;durP2;ratioP2;P2;SDS_P1;SDS_P2;PMS_P1;PMS_P2;Temp;Humidity;BMP_temperature;BMP_pressure;BME280_temperature;BME280_humidity;BME280_pressure;Samples;Min_cycle;Max_cycle;Signal;HPM_P1;HPM_P2
2022/01/13 05:14:34;;;;;;;98.32;35.63;;;;;;;-7.06;100.00;102445.62;5574293;32;180727;-88
2022/01/13 05:21:03;;;;;;;86.45;34.28;;;;;;;-7.62;100.00;102467.34;5543905;32;34601;-87
2022/01/13 05:24:06;;;;;;;101.95;34.90;;;;;;;-7.67;100.00;102466.19;5543360;32;33679;-87
2022/01/13 05:27:08;;;;;;;94.82;34.92;;;;;;;-7.42;100.00;102478.84;5544085;32;34500;-87
2022/01/13 05:30:12;;;;;;;90.07;35.10;;;;;;;-7.42;100.00;102476.25;5545855;32;33829;-87
2022/01/13 05:33:15;;;;;;;84.30;32.47;;;;;;;-7.42;100.00;102476.25;5545214;32;34228;-87
2022/01/13 05:36:18;;;;;;;83.07;32.08;;;;;;;-7.30;100.00;102491.53;5542519;32;34607;-87
2022/01/13 05:39:20;;;;;;;76.47;31.42;;;;;;;-7.23;100.00;102482.47;5543315;32;34494;-87
2022/01/13 05:42:23;;;;;;;79.47;31.52;;;;;;;-7.14;100.00;102485.59;5545821;32;34528;-87
2022/01/13 05:45:30;;;;;;;88.68;32.80;;;;;;;-6.95;100.00;102476.31;5553387;32;34971;-87
2022/01/13 05:48:33;;;;;;;79.45;31.80;;;;;;;-6.91;100.00;102463.66;5543876;32;34385;-87
2022/01/13 05:51:40;;;;;;;87.53;34.38;;;;;;;-6.72;100.00;102477.59;5543189;32;33777;-87
2022/01/13 05:54:44;;;;;;;82.00;32.10;;;;;;;-6.61;100.00;102462.69;5543691;32;34483;-88
2022/01/13 05:57:46;;;;;;;80.82;32.53;;;;;;;-6.53;100.00;102458.81;5549200;32;33761;-90
2022/01/13 06:00:49;;;;;;;80.38;32.33;;;;;;;-6.42;99.96;102468.88;5553467;32;35305;-91
2022/01/13 06:03:52;;;;;;;82.97;32.50;;;;;;;-6.39;99.65;102469.03;5563682;32;34094;-91
2022/01/13 06:06:55;;;;;;;79.25;34.05;;;;;;;-6.33;99.54;102458.13;5565608;32;33866;-91
2022/01/13 06:09:57;;;;;;;79.75;33.63;;;;;;;-6.27;99.61;102461.06;5571531;32;34684;-88
2022/01/13 06:13:01;;;;;;;86.82;33.28;;;;;;;-6.19;98.53;102461.47;5572083;32;34324;-87
2022/01/13 06:16:03;;;;;;;78.05;32.05;;;;;;;-6.11;98.06;102457.59;5572621;32;33927;-88
2022/01/13 06:19:06;;;;;;;79.62;33.85;;;;;;;-6.13;98.26;102454.91;5569292;32;33761;-88
2022/01/13 06:22:10;;;;;;;77.32;31.42;;;;;;;-6.18;97.51;102450.31;5562654;32;33958;-88
2022/01/13 06:25:14;;;;;;;76.05;31.70;;;;;;;-6.17;97.23;102439.16;5551967;32;35439;-87
2022/01/13 06:28:16;;;;;;;76.03;32.53;;;;;;;-6.07;96.72;102441.44;5549915;32;33854;-88
2022/01/13 06:31:19;;;;;;;76.70;31.35;;;;;;;-5.99;95.69;102457.31;5543893;32;33977;-88
2022/01/13 06:34:22;;;;;;;82.30;32.55;;;;;;;-6.06;96.32;102456.13;5541117;32;33717;-88
2022/01/13 06:37:25;;;;;;;70.50;30.55;;;;;;;-6.04;96.29;102464.84;5550090;32;33534;-87
2022/01/13 06:40:27;;;;;;;72.00;29.40;;;;;;;-6.04;96.61;102462.25;5549025;32;34265;-87
2022/01/13 06:43:31;;;;;;;74.00;30.92;;;;;;;-5.89;96.67;102456.09;5542048;32;34553;-87
2022/01/13 06:46:34;;;;;;;68.00;28.65;;;;;;;-5.82;95.91;102451.28;5553998;32;34264;-87
2022/01/13 06:49:38;;;;;;;78.78;30.95;;;;;;;-5.83;96.30;102459.00;5561363;32;33727;-87
2022/01/13 06:52:41;;;;;;;69.50;29.30;;;;;;;-5.82;96.34;102448.72;5549566;32;34637;-87
2022/01/13 06:55:43;;;;;;;70.78;28.83;;;;;;;-5.87;96.41;102457.06;5548667;32;33788;-88
2022/01/13 06:58:48;;;;;;;66.70;29.15;;;;;;;-5.73;96.30;102461.22;5548776;32;35241;-88
2022/01/13 07:01:50;;;;;;;81.43;29.17;;;;;;;-5.72;95.86;102455.28;5550702;32;34520;-88
2022/01/13 07:04:53;;;;;;;74.60;28.98;;;;;;;-5.66;96.00;102457.28;5562576;32;33332;-87
2022/01/13 07:07:56;;;;;;;72.43;28.55;;;;;;;-5.64;95.91;102453.06;5580695;32;34124;-88
2022/01/13 07:11:02;;;;;;;67.87;29.00;;;;;;;-5.59;95.96;102451.59;5583120;31;33795;-87
2022/01/13 07:14:05;;;;;;;73.47;28.75;;;;;;;-5.67;95.77;102452.91;5582577;32;35013;-87
2022/01/13 07:17:09;;;;;;;66.87;29.30;;;;;;;-5.68;96.16;102467.53;5560004;32;34828;-86
2022/01/13 07:20:12;;;;;;;64.53;28.30;;;;;;;-5.53;96.30;102456.19;5543327;32;34314;-87
2022/01/13 07:23:15;;;;;;;69.80;28.42;;;;;;;-5.42;95.75;102461.91;5532250;32;34035;-87
2022/01/13 07:26:20;;;;;;;69.40;28.40;;;;;;;-5.11;94.65;102453.06;5537752;32;34200;-88
2022/01/13 07:29:23;;;;;;;65.28;29.75;;;;;;;-5.15;94.06;102459.78;5545276;32;33937;-87
2022/01/13 07:32:25;;;;;;;71.72;30.20;;;;;;;-5.10;93.82;102470.37;5557715;32;34053;-87
2022/01/13 07:35:28;;;;;;;72.25;29.98;;;;;;;-5.05;93.52;102470.56;5553833;32;33744;-88
2022/01/13 07:38:31;;;;;;;70.12;30.52;;;;;;;-4.99;92.85;102472.59;5548534;32;33639;-88
2022/01/13 07:41:36;;;;;;;75.65;31.85;;;;;;;-4.92;92.72;102478.13;5549097;32;34560;-88
2022/01/13 07:44:39;;;;;;;69.55;29.05;;;;;;;-4.75;92.36;102483.22;5549403;32;34031;-88
2022/01/13 07:47:42;;;;;;;73.97;30.55;;;;;;;-4.37;89.95;102476.34;5548933;32;33874;-88
2022/01/13 07:50:46;;;;;;;75.15;31.08;;;;;;;-4.47;89.77;102485.41;5549347;32;33946;-89
2022/01/13 07:53:48;;;;;;;74.32;30.15;;;;;;;-4.39;90.45;102479.69;5549219;32;33963;-89
2022/01/13 07:56:51;;;;;;;64.45;29.60;;;;;;;-4.28;89.46;102486.25;5550561;32;34405;-90
2022/01/13 07:59:56;;;;;;;69.05;30.75;;;;;;;-4.03;88.78;102484.78;5550412;32;33873;-89
2022/01/13 08:03:02;;;;;;;77.40;31.65;;;;;;;-3.94;87.47;102477.41;5551024;32;33733;-90
2022/01/13 08:06:08;;;;;;;72.45;31.65;;;;;;;-4.02;87.71;102477.91;5560631;32;34433;-90
2022/01/13 08:09:10;;;;;;;70.65;30.10;;;;;;;-4.09;87.90;102484.50;5560540;32;33824;-90
2022/01/13 08:12:13;;;;;;;71.85;30.48;;;;;;;-3.92;88.10;102482.69;5553184;32;34872;-90
2022/01/13 08:15:16;;;;;;;68.75;30.73;;;;;;;-3.74;86.95;102479.09;5559913;32;35225;-90
2022/01/13 08:21:43;;;;;;;77.32;31.45;;;;;;;-3.52;86.87;102489.59;5613159;26;34727;-89
2022/01/13 08:24:59;;;;;;;70.53;31.48;;;;;;;-3.26;86.47;102496.72;5614084;26;33194;-89
2022/01/13 08:28:02;;;;;;;67.70;30.05;;;;;;;-3.02;86.20;102495.97;5547878;32;34469;-88
2022/01/13 08:31:14;;;;;;;77.62;31.37;;;;;;;-2.96;85.42;102480.63;5549867;32;34520;-88
2022/01/13 08:34:17;;;;;;;67.95;30.52;;;;;;;-2.87;84.92;102480.09;5549705;32;33744;-89
2022/01/13 08:37:20;;;;;;;63.38;29.08;;;;;;;-2.82;85.42;102481.16;5551312;32;34217;-89
2022/01/13 08:40:23;;;;;;;81.75;28.80;;;;;;;-2.47;86.80;102484.25;5548485;32;34225;-87
2022/01/13 08:43:28;;;;;;;66.25;29.02;;;;;;;-2.19;86.40;102469.69;5547861;32;33749;-88
2022/01/13 08:46:31;;;;;;;69.45;29.12;;;;;;;-2.00;86.18;102480.78;5533401;32;35051;-88
2022/01/13 08:49:33;;;;;;;74.93;29.58;;;;;;;-1.76;85.01;102477.28;5528772;32;34413;-89
2022/01/13 08:52:39;;;;;;;62.25;28.35;;;;;;;-1.71;84.87;102473.09;5528509;32;34503;-87
2022/01/13 08:55:43;;;;;;;66.03;28.23;;;;;;;-1.62;84.42;102482.97;5541021;32;34628;-89
2022/01/13 08:58:47;;;;;;;70.00;26.80;;;;;;;-1.57;84.36;102471.00;5543255;32;34856;-88
2022/01/13 09:02:05;;;;;;;70.85;29.25;;;;;;;-1.51;85.03;102467.72;5518621;32;33772;-88
2022/01/13 09:05:09;;;;;;;66.15;29.70;;;;;;;-1.31;84.70;102472.72;5519967;32;34463;-88
2022/01/13 09:08:12;;;;;;;69.95;28.33;;;;;;;-1.12;83.96;102471.59;5507162;32;33842;-89
2022/01/13 09:11:15;;;;;;;72.70;29.55;;;;;;;-0.92;82.77;102468.78;5508875;32;34764;-90
2022/01/13 09:14:24;;;;;;;65.82;29.40;;;;;;;-0.91;82.92;102474.00;5513864;32;34106;-86
2022/01/13 09:17:27;;;;;;;57.75;25.65;;;;;;;-0.83;83.25;102471.66;5513371;32;34119;-88
2022/01/13 09:20:30;;;;;;;60.72;23.92;;;;;;;-0.69;84.07;102472.09;5523642;32;33867;-87
2022/01/13 09:23:40;;;;;;;54.13;23.77;;;;;;;-0.44;84.18;102462.41;5512135;32;34170;-88
2022/01/13 09:26:43;;;;;;;52.28;21.60;;;;;;;-0.30;84.11;102470.63;5511849;32;34036;-88
2022/01/13 09:29:48;;;;;;;52.65;21.42;;;;;;;-0.20;84.37;102472.66;5533355;32;34386;-88
2022/01/13 09:32:51;;;;;;;50.75;22.30;;;;;;;0.10;83.23;102476.09;5551018;32;33754;-88
2022/01/13 09:35:54;;;;;;;51.90;22.02;;;;;;;2.39;73.82;102478.66;5531014;32;35341;-88
2022/01/13 09:38:58;;;;;;;49.85;22.27;;;;;;;5.08;62.34;102463.63;5532618;32;33871;-89
2022/01/13 09:42:01;;;;;;;50.03;22.05;;;;;;;4.89;60.59;102467.00;5544550;32;35147;-91
2022/01/13 09:45:05;;;;;;;48.90;22.95;;;;;;;5.71;58.74;102461.34;5545504;32;34101;-92
2022/01/13 09:48:08;;;;;;;45.20;22.35;;;;;;;7.54;53.06;102445.59;5546866;32;35294;-92
2022/01/13 09:51:11;;;;;;;49.60;22.50;;;;;;;8.49;49.54;102446.81;5535913;32;33442;-89
2022/01/13 09:54:14;;;;;;;45.88;22.10;;;;;;;8.29;48.59;102431.13;5529622;32;33769;-89
2022/01/13 09:57:17;;;;;;;44.50;22.50;;;;;;;8.04;49.82;102429.50;5550377;32;33989;-86
2022/01/13 10:00:25;;;;;;;46.08;21.02;;;;;;;9.94;45.18;102424.13;5551448;32;35210;-88
2022/01/13 10:03:28;;;;;;;47.90;21.73;;;;;;;10.72;42.61;102425.59;5546978;32;34233;-87
2022/01/13 10:06:41;;;;;;;44.38;21.45;;;;;;;8.85;47.70;102425.41;5558483;32;33379;-85
2022/01/13 10:09:55;;;;;;;47.85;20.80;;;;;;;8.69;46.71;102428.19;5540009;32;33962;-87
2022/01/13 10:13:09;;;;;;;44.13;21.65;;;;;;;7.27;49.98;102420.16;5543145;32;33501;-87
2022/01/13 10:16:23;;;;;;;47.33;22.23;;;;;;;4.88;59.58;102423.16;5542909;32;34211;-87
2022/01/13 10:19:32;;;;;;;44.08;20.80;;;;;;;4.87;60.60;102418.78;5556300;32;34544;-87
2022/01/13 10:22:36;;;;;;;46.30;21.30;;;;;;;4.38;62.25;102418.38;5551970;32;34097;-87
2022/01/13 10:25:40;;;;;;;46.55;20.15;;;;;;;3.43;65.01;102409.50;5540085;32;33594;-87
2022/01/13 10:28:52;;;;;;;44.10;20.67;;;;;;;3.40;66.20;102412.06;5551834;32;34006;-87
2022/01/13 10:31:54;;;;;;;41.42;19.77;;;;;;;2.73;69.64;102418.09;5519076;32;32542;-87
2022/01/13 10:35:00;;;;;;;49.58;20.88;;;;;;;3.16;67.61;102410.88;5537766;32;33650;-88
2022/01/13 10:38:03;;;;;;;45.10;21.50;;;;;;;2.42;70.80;102405.38;5555486;32;34090;-88
2022/01/13 10:41:50;;;;;;;38.95;18.60;;;;;;;1.57;74.54;102404.69;5540391;32;34178;-87
2022/01/13 10:44:54;;;;;;;44.20;20.15;;;;;;;2.19;72.73;102402.34;5531376;32;34180;-91
2022/01/13 10:48:07;;;;;;;40.58;19.52;;;;;;;2.10;72.96;102398.72;5539758;32;34055;-86
2022/01/13 10:51:09;;;;;;;42.42;20.77;;;;;;;2.02;73.96;102408.19;5549778;32;34977;-90
2022/01/13 10:54:24;;;;;;;41.40;19.73;;;;;;;1.88;74.87;102400.06;5552727;32;34343;-89
2022/01/13 10:57:29;;;;;;;38.72;17.70;;;;;;;2.02;74.59;102398.56;5550714;32;34372;-90
2022/01/13 11:00:34;;;;;;;41.97;19.55;;;;;;;5.08;75.97;102384.72;5551005;32;33968;-89
2022/01/13 11:03:40;;;;;;;43.78;18.80;;;;;;;6.05;60.49;102372.78;5551409;32;33821;-89
2022/01/13 11:06:42;;;;;;;37.20;18.58;;;;;;;6.49;57.87;102374.56;5565248;32;34813;-88
2022/01/13 11:09:55;;;;;;;37.70;18.25;;;;;;;4.30;64.71;102376.28;5562101;32;36497;-89
2022/01/13 11:12:59;;;;;;;40.53;19.98;;;;;;;4.08;65.29;102374.31;5553851;32;33981;-88
2022/01/13 11:16:03;;;;;;;42.20;19.62;;;;;;;3.36;68.12;102371.78;5558682;32;34059;-89
2022/01/13 11:19:06;;;;;;;43.85;19.95;;;;;;;2.34;72.69;102371.19;5558199;32;34705;-88
2022/01/13 11:22:09;;;;;;;42.10;19.95;;;;;;;2.94;71.14;102362.50;5560957;32;35274;-89
2022/01/13 11:25:15;;;;;;;36.88;18.35;;;;;;;3.20;70.00;102359.34;5563693;32;33933;-89
2022/01/13 11:28:18;;;;;;;38.85;18.85;;;;;;;3.94;66.71;102355.81;5547105;32;33743;-89
2022/01/13 11:31:21;;;;;;;35.67;18.30;;;;;;;4.18;65.66;102349.91;5548347;32;34032;-89
2022/01/13 11:34:25;;;;;;;37.60;17.60;;;;;;;3.28;68.34;102352.47;5553433;32;33842;-90
2022/01/13 11:37:29;;;;;;;34.28;17.00;;;;;;;3.04;70.44;102350.38;5549225;32;33643;-90
2022/01/13 11:40:38;;;;;;;33.65;15.40;;;;;;;2.89;70.56;102359.81;5549421;32;34403;-90
2022/01/13 11:43:42;;;;;;;30.52;15.13;;;;;;;2.95;70.77;102362.53;5549581;32;34240;-89
2022/01/13 11:46:46;;;;;;;34.05;15.13;;;;;;;4.59;65.01;102359.00;5548362;32;34165;-90
2022/01/13 11:49:59;;;;;;;32.45;15.10;;;;;;;4.24;65.63;102349.06;5550523;32;34262;-89
2022/01/13 11:53:19;;;;;;;30.35;14.95;;;;;;;3.21;69.53;102363.72;5543426;32;34162;-89
2022/01/13 11:56:24;;;;;;;32.80;14.57;;;;;;;3.08;70.91;102362.69;5530558;32;33677;-89
2022/01/13 11:59:26;;;;;;;26.87;14.63;;;;;;;3.14;71.02;102354.00;5530598;32;34868;-89
2022/01/13 12:02:32;;;;;;;27.90;13.55;;;;;;;2.65;72.77;102355.97;5523666;32;35076;-92
2022/01/13 12:05:42;;;;;;;25.98;14.77;;;;;;;2.59;73.22;102354.97;5551410;32;34316;-89
2022/01/13 12:08:48;;;;;;;32.97;15.27;;;;;;;2.16;75.11;102358.66;5545252;32;34071;-89
2022/01/13 12:11:55;;;;;;;30.90;14.45;;;;;;;2.31;74.98;102355.41;5549349;32;34063;-88
2022/01/13 12:15:18;;;;;;;41.50;15.93;;;;;;;2.18;75.87;102356.97;5554308;32;33724;-89
2022/01/13 12:19:04;;;;;;;33.90;14.98;;;;;;;2.39;74.55;102359.06;5558213;32;34667;-88
2022/01/13 12:22:18;;;;;;;30.62;14.75;;;;;;;2.40;74.61;102336.34;5592107;26;35127;-88
2022/01/13 12:25:21;;;;;;;34.97;16.55;;;;;;;2.02;76.24;102327.88;5516221;32;34738;-86
2022/01/13 12:28:26;;;;;;;34.13;14.90;;;;;;;1.80;77.72;102331.00;5509492;32;33777;-88
2022/01/13 12:31:29;;;;;;;32.25;15.45;;;;;;;1.35;79.60;102315.31;5518372;32;35321;-87
2022/01/13 12:34:32;;;;;;;34.33;16.02;;;;;;;1.19;80.68;102316.72;5523932;32;34323;-87
2022/01/13 12:37:39;;;;;;;34.35;16.25;;;;;;;1.29;80.32;102297.78;5512284;32;34970;-87
2022/01/13 12:40:46;;;;;;;38.70;17.02;;;;;;;1.34;80.36;102296.12;5502307;32;34865;-87
2022/01/13 12:44:02;;;;;;;36.40;17.08;;;;;;;1.63;79.26;102294.91;5497580;32;33664;-87
2022/01/13 12:47:04;;;;;;;38.00;16.65;;;;;;;1.84;78.03;102294.44;5490611;32;34248;-87
2022/01/13 12:50:29;;;;;;;39.80;17.25;;;;;;;2.23;76.64;102307.28;5490600;32;34073;-91
2022/01/13 12:53:36;;;;;;;39.55;17.30;;;;;;;2.35;75.49;102325.81;5490779;32;33999;-88
2022/01/13 12:56:42;;;;;;;42.03;17.48;;;;;;;2.45;74.90;102336.44;5504297;32;35015;-87
2022/01/13 12:59:45;;;;;;;37.78;17.85;;;;;;;2.58;74.51;102347.97;5506442;32;34494;-88
2022/01/13 13:02:56;;;;;;;40.92;19.08;;;;;;;2.63;74.28;102341.97;5504895;32;34410;-87
2022/01/13 13:05:59;;;;;;;36.90;18.33;;;;;;;2.24;75.64;102329.97;5507960;32;34502;-86
2022/01/13 13:09:06;;;;;;;37.22;18.73;;;;;;;1.81;77.05;102325.75;5507847;32;33641;-87
2022/01/13 13:12:22;;;;;;;42.70;19.00;;;;;;;2.06;76.36;102320.09;5502438;32;34459;-88
2022/01/13 13:18:31;;;;;;;35.08;17.17;;;;;;;2.09;76.76;102300.09;5498191;32;34167;-87
2022/01/13 13:21:34;;;;;;;38.13;17.87;;;;;;;2.20;76.32;102284.53;5505122;32;33998;-87
2022/01/13 13:24:40;;;;;;;35.65;17.45;;;;;;;2.19;76.38;102289.75;5527559;32;34031;-86
2022/01/13 13:27:43;;;;;;;36.33;16.90;;;;;;;2.04;76.81;102280.78;5522281;32;34125;-88
2022/01/13 13:30:57;;;;;;;32.80;17.20;;;;;;;1.84;77.81;102281.34;5511725;32;34212;-87
2022/01/13 13:34:20;;;;;;;36.47;17.10;;;;;;;1.95;77.05;102262.31;5515427;32;34610;-88
2022/01/13 13:37:23;;;;;;;34.08;16.92;;;;;;;1.83;77.88;102276.97;5529196;32;33807;-87
2022/01/13 13:40:26;;;;;;;37.13;16.25;;;;;;;1.93;77.64;102293.72;5526732;32;35105;-86
2022/01/13 13:43:31;;;;;;;34.78;16.62;;;;;;;1.88;77.62;102288.38;5529628;32;34008;-88
2022/01/13 13:46:35;;;;;;;40.47;17.35;;;;;;;1.55;79.00;102291.28;5517479;32;33839;-90
2022/01/13 13:49:38;;;;;;;33.67;16.60;;;;;;;1.55;79.36;102289.53;5512702;32;35140;-89
2022/01/13 13:52:41;;;;;;;33.20;16.73;;;;;;;1.47;79.96;102293.75;5526043;32;34337;-89
2022/01/13 13:56:01;;;;;;;34.72;16.85;;;;;;;1.66;79.20;102294.97;5539510;32;34449;-89
2022/01/13 13:59:05;;;;;;;37.92;17.85;;;;;;;1.58;79.94;102307.94;5531058;32;35339;-93
2022/01/13 14:02:11;;;;;;;40.40;17.50;;;;;;;1.61;79.50;102301.88;5524062;32;36366;-93
2022/01/13 14:05:27;;;;;;;34.47;17.77;;;;;;;1.20;81.61;102290.63;5515600;32;33505;-90
2022/01/13 14:08:29;;;;;;;37.28;17.98;;;;;;;1.10;82.18;102300.87;5512659;32;34274;-89
2022/01/13 14:11:48;;;;;;;37.92;18.27;;;;;;;1.08;82.67;102300.81;5526856;32;34192;-88
2022/01/13 14:14:50;;;;;;;39.25;19.48;;;;;;;1.26;82.42;102283.75;5524922;32;34616;-88
2022/01/13 14:18:08;;;;;;;42.45;18.67;;;;;;;1.14;82.47;102281.75;5527025;32;34550;-88
2022/01/13 14:21:10;;;;;;;39.03;17.77;;;;;;;1.13;82.89;102287.84;5525583;32;33947;-88
2022/01/13 14:24:13;;;;;;;39.75;17.95;;;;;;;1.15;82.42;102276.56;5523389;32;34453;-89
2022/01/13 14:27:16;;;;;;;39.53;18.33;;;;;;;1.01;83.29;102272.81;5532788;32;34532;-89
2022/01/13 14:30:46;;;;;;;37.30;17.62;;;;;;;0.99;83.46;102258.81;5537783;32;34416;-89
2022/01/13 14:33:49;;;;;;;43.15;18.65;;;;;;;1.00;83.75;102271.03;5534880;32;34103;-88
2022/01/13 14:36:52;;;;;;;38.63;17.40;;;;;;;0.96;84.12;102270.09;5534507;32;34427;-88
2022/01/13 14:40:12;;;;;;;39.25;18.02;;;;;;;1.06;84.01;102268.56;5532402;32;34176;-88
2022/01/13 14:43:20;;;;;;;36.80;18.45;;;;;;;0.97;84.37;102265.75;5530130;32;34462;-88
2022/01/13 14:46:26;;;;;;;39.88;17.98;;;;;;;0.94;84.30;102262.22;5536065;32;34183;-88
2022/01/13 14:49:30;;;;;;;38.58;18.20;;;;;;;0.96;84.36;102272.72;5522380;32;34520;-88
2022/01/13 14:52:32;;;;;;;40.05;17.77;;;;;;;0.99;84.28;102258.81;5530593;32;34599;-87
2022/01/13 14:55:35;;;;;;;38.60;18.40;;;;;;;1.01;84.47;102262.34;5525839;32;33954;-87
2022/01/13 14:58:39;;;;;;;35.13;17.62;;;;;;;1.05;84.22;102254.59;5532895;32;33985;-88
2022/01/13 15:01:45;;;;;;;39.72;17.75;;;;;;;0.85;85.14;102248.94;5533762;32;34203;-87
2022/01/13 15:05:03;;;;;;;37.78;18.00;;;;;;;0.99;84.69;102238.78;5519036;32;34041;-89
2022/01/13 15:08:06;;;;;;;33.40;16.20;;;;;;;1.00;84.71;102239.69;5523883;32;33943;-89
2022/01/13 15:11:13;;;;;;;34.58;16.52;;;;;;;0.88;85.33;102232.47;5525319;32;33519;-89
2022/01/13 15:14:15;;;;;;;36.72;17.62;;;;;;;0.78;85.80;102236.63;5525209;32;34825;-87
2022/01/13 15:17:18;;;;;;;32.80;16.12;;;;;;;0.89;85.40;102229.87;5531801;32;34267;-90
2022/01/13 15:23:46;;;;;;;33.47;16.40;;;;;;;0.85;85.96;102228.03;3422822;26;20211;-91
2022/01/13 15:34:09;;;;;;;36.22;17.05;;;;;;;1.58;82.82;102220.69;5531499;32;34705;-91
2022/01/13 15:37:12;;;;;;;34.17;16.30;;;;;;;1.27;83.84;102221.03;5533619;32;34955;-89
2022/01/13 15:40:16;;;;;;;34.55;16.90;;;;;;;1.26;83.80;102216.63;5539640;32;34325;-89
2022/01/13 15:43:20;;;;;;;34.60;16.48;;;;;;;1.14;84.46;102212.06;5535656;32;34440;-90
2022/01/13 15:46:23;;;;;;;32.83;16.98;;;;;;;1.09;84.85;102221.56;5539687;32;33961;-90
2022/01/13 15:49:26;;;;;;;37.10;17.62;;;;;;;1.10;84.68;102207.62;5540352;32;34903;-90
2022/01/13 15:52:29;;;;;;;34.95;17.08;;;;;;;1.18;84.72;102208.69;5543366;32;34142;-90
2022/01/13 15:55:33;;;;;;;32.10;16.77;;;;;;;1.21;84.29;102213.09;5528251;32;33709;-91
2022/01/13 15:58:36;;;;;;;34.78;17.10;;;;;;;1.11;84.96;102200.69;5521719;32;35244;-91
2022/01/13 16:01:39;;;;;;;39.45;17.73;;;;;;;1.03;85.52;102197.91;5524935;32;34602;-91
2022/01/13 16:04:43;;;;;;;35.05;16.62;;;;;;;1.11;85.27;102198.94;5525154;32;35279;-91
2022/01/13 16:07:46;;;;;;;36.17;16.95;;;;;;;1.07;85.53;102184.91;5525881;32;35271;-90
2022/01/13 16:10:49;;;;;;;33.15;16.23;;;;;;;1.23;84.82;102174.75;5525005;32;35270;-91
2022/01/13 16:13:56;;;;;;;34.13;16.98;;;;;;;1.44;83.74;102169.03;5523574;32;34234;-91
2022/01/13 16:17:00;;;;;;;33.90;16.65;;;;;;;1.12;85.12;102164.12;5522972;32;34236;-91
2022/01/13 16:20:08;;;;;;;33.75;16.50;;;;;;;1.26;84.81;102163.47;5522530;32;34455;-91
2022/01/13 16:23:11;;;;;;;36.83;16.90;;;;;;;1.18;84.93;102163.34;5525544;32;35249;-91
2022/01/13 16:26:16;;;;;;;33.58;16.37;;;;;;;1.13;85.23;102157.12;5526439;32;34055;-90
2022/01/13 16:29:55;;;;;;;37.13;17.02;;;;;;;1.23;84.96;102156.47;5520927;32;34036;-91
2022/01/13 16:33:00;;;;;;;38.10;17.45;;;;;;;1.20;85.22;102148.53;5529228;32;35143;-90
2022/01/13 16:36:03;;;;;;;36.67;16.55;;;;;;;1.17;85.16;102158.97;5577152;26;35229;-91
2022/01/13 16:39:06;;;;;;;35.00;15.82;;;;;;;1.34;84.36;102154.91;5533344;32;34254;-91
2022/01/13 16:42:09;;;;;;;36.13;16.33;;;;;;;1.20;84.59;102149.44;5531795;32;34467;-91
